sensor_id;sensor_type;location;lat;lon;timestamp;P1;durP1;ratioP1;P2;durP2;ratioP2
1140;SDS011;559;48.628;8.924;2022-09-27T00:01:58;90.85;;;85.65;;
1140;SDS011;559;48.628;8.924;2022-09-27T00:04:25;85.60;;;80.50;;
1140;SDS011;559;48.628;8.924;2022-09-27T00:06:51;91.60;;;86.35;;
1140;SDS011;559;48.628;8.924;2022-09-27T00:09:18;90.43;;;85.22;;
1140;SDS011;559;48.628;8.924;2022-09-27T00:11:45;94.22;;;88.88;;
1140;SDS011;559;48.628;8.924;2022-09-27T00:14:12;92.20;;;86.90;;
1140;SDS011;559;48.628;8.924;2022-09-27T00:16:42;96.20;;;90.72;;
1140;SDS011;559;48.628;8.924;2022-09-27T00:19:10;94.53;;;89.15;;
1140;SDS011;559;48.628;8.924;2022-09-27T00:21:38;93.55;;;88.15;;
1140;SDS011;559;48.628;8.924;2022-09-27T00:24:05;97.05;;;91.57;;
1140;SDS011;559;48.628;8.924;2022-09-27T00:26:31;90.65;;;85.38;;
1140;SDS011;559;48.628;8.924;2022-09-27T00:28:58;98.93;;;93.32;;
1140;SDS011;559;48.628;8.924;2022-09-27T00:31:25;91.03;;;85.72;;
1140;SDS011;559;48.628;8.924;2022-09-27T00:33:56;96.85;;;91.40;;
1140;SDS011;559;48.628;8.924;2022-09-27T00:36:23;91.13;;;85.85;;
1140;SDS011;559;48.628;8.924;2022-09-27T00:38:50;96.18;;;90.65;;
1140;SDS011;559;48.628;8.924;2022-09-27T00:41:18;99.45;;;93.85;;
1140;SDS011;559;48.628;8.924;2022-09-27T00:43:47;94.35;;;88.95;;
1140;SDS011;559;48.628;8.924;2022-09-27T00:46:17;95.68;;;90.18;;
1140;SDS011;559;48.628;8.924;2022-09-27T00:48:47;90.05;;;84.60;;
1140;SDS011;559;48.628;8.924;2022-09-27T00:51:22;96.18;;;90.60;;
1140;SDS011;559;48.628;8.924;2022-09-27T00:53:49;99.93;;;94.32;;
1140;SDS011;559;48.628;8.924;2022-09-27T00:56:19;92.22;;;86.90;;
1140;SDS011;559;48.628;8.924;2022-09-27T00:58:49;92.38;;;86.97;;
1140;SDS011;559;48.628;8.924;2022-09-27T01:01:20;92.28;;;86.88;;
1140;SDS011;559;48.628;8.924;2022-09-27T01:03:48;96.70;;;91.13;;
1140;SDS011;559;48.628;8.924;2022-09-27T01:06:18;88.20;;;82.90;;
1140;SDS011;559;48.628;8.924;2022-09-27T01:08:47;87.63;;;82.32;;
1140;SDS011;559;48.628;8.924;2022-09-27T01:11:17;92.15;;;86.55;;
1140;SDS011;559;48.628;8.924;2022-09-27T01:13:55;88.28;;;82.95;;
1140;SDS011;559;48.628;8.924;2022-09-27T01:16:30;85.93;;;80.72;;
1140;SDS011;559;48.628;8.924;2022-09-27T01:19:03;88.35;;;83.07;;
1140;SDS011;559;48.628;8.924;2022-09-27T01:21:46;87.97;;;82.68;;
1140;SDS011;559;48.628;8.924;2022-09-27T01:30:37;88.72;;;83.13;;
1140;SDS011;559;48.628;8.924;2022-09-27T01:33:23;90.07;;;84.78;;
1140;SDS011;559;48.628;8.924;2022-09-27T01:35:59;92.80;;;87.10;;
1140;SDS011;559;48.628;8.924;2022-09-27T01:38:39;89.57;;;84.15;;
1140;SDS011;559;48.628;8.924;2022-09-27T01:41:11;92.85;;;87.35;;
1140;SDS011;559;48.628;8.924;2022-09-27T01:43:43;90.00;;;84.70;;
1140;SDS011;559;48.628;8.924;2022-09-27T01:46:16;88.45;;;83.18;;
1140;SDS011;559;48.628;8.924;2022-09-27T01:48:47;85.13;;;79.38;;
1140;SDS011;559;48.628;8.924;2022-09-27T01:51:16;82.93;;;77.75;;
1140;SDS011;559;48.628;8.924;2022-09-27T01:53:45;90.47;;;85.18;;
1140;SDS011;559;48.628;8.924;2022-09-27T01:56:13;82.47;;;77.35;;
1140;SDS011;559;48.628;8.924;2022-09-27T01:58:43;84.88;;;79.53;;
1140;SDS011;559;48.628;8.924;2022-09-27T02:01:15;80.55;;;75.45;;
1140;SDS011;559;48.628;8.924;2022-09-27T02:03:43;78.88;;;73.90;;
1140;SDS011;559;48.628;8.924;2022-09-27T02:06:14;87.43;;;82.22;;
1140;SDS011;559;48.628;8.924;2022-09-27T02:08:44;89.82;;;84.53;;
1140;SDS011;559;48.628;8.924;2022-09-27T02:11:13;92.80;;;87.30;;
1140;SDS011;559;48.628;8.924;2022-09-27T02:13:42;80.32;;;75.30;;
1140;SDS011;559;48.628;8.924;2022-09-27T02:16:13;83.15;;;78.05;;
1140;SDS011;559;48.628;8.924;2022-09-27T02:18:50;86.95;;;81.55;;
1140;SDS011;559;48.628;8.924;2022-09-27T02:21:23;80.30;;;75.10;;
1140;SDS011;559;48.628;8.924;2022-09-27T02:23:51;80.28;;;75.13;;
1140;SDS011;559;48.628;8.924;2022-09-27T02:26:21;81.63;;;76.43;;
1140;SDS011;559;48.628;8.924;2022-09-27T02:28:51;82.88;;;77.68;;
1140;SDS011;559;48.628;8.924;2022-09-27T02:31:24;79.85;;;74.38;;
1140;SDS011;559;48.628;8.924;2022-09-27T02:33:51;83.68;;;78.15;;
1140;SDS011;559;48.628;8.924;2022-09-27T02:36:20;81.00;;;75.60;;
1140;SDS011;559;48.628;8.924;2022-09-27T02:38:47;82.65;;;77.55;;
1140;SDS011;559;48.628;8.924;2022-09-27T02:41:15;82.50;;;77.35;;
1140;SDS011;559;48.628;8.924;2022-09-27T02:43:43;79.38;;;74.30;;
1140;SDS011;559;48.628;8.924;2022-09-27T02:46:15;78.22;;;73.03;;
1140;SDS011;559;48.628;8.924;2022-09-27T02:48:52;82.75;;;77.55;;
1140;SDS011;559;48.628;8.924;2022-09-27T02:51:28;77.95;;;72.85;;
1140;SDS011;559;48.628;8.924;2022-09-27T02:54:06;81.38;;;76.28;;
1140;SDS011;559;48.628;8.924;2022-09-27T02:56:41;78.30;;;73.25;;
1140;SDS011;559;48.628;8.924;2022-09-27T02:59:12;78.63;;;73.70;;
1140;SDS011;559;48.628;8.924;2022-09-27T03:01:45;76.20;;;71.35;;
1140;SDS011;559;48.628;8.924;2022-09-27T03:04:19;72.28;;;67.55;;
1140;SDS011;559;48.628;8.924;2022-09-27T03:06:48;66.07;;;61.58;;
1140;SDS011;559;48.628;8.924;2022-09-27T03:09:17;68.47;;;63.97;;
1140;SDS011;559;48.628;8.924;2022-09-27T03:11:44;69.25;;;64.75;;
1140;SDS011;559;48.628;8.924;2022-09-27T03:14:11;69.07;;;64.57;;
1140;SDS011;559;48.628;8.924;2022-09-27T03:16:38;73.82;;;69.15;;
1140;SDS011;559;48.628;8.924;2022-09-27T03:19:04;76.30;;;71.55;;
1140;SDS011;559;48.628;8.924;2022-09-27T03:21:32;73.70;;;69.00;;
1140;SDS011;559;48.628;8.924;2022-09-27T03:23:59;76.47;;;71.47;;
1140;SDS011;559;48.628;8.924;2022-09-27T03:26:26;75.78;;;70.78;;
1140;SDS011;559;48.628;8.924;2022-09-27T03:28:52;78.80;;;73.90;;
1140;SDS011;559;48.628;8.924;2022-09-27T03:31:19;77.13;;;72.18;;
1140;SDS011;559;48.628;8.924;2022-09-27T03:33:45;79.13;;;74.25;;
1140;SDS011;559;48.628;8.924;2022-09-27T03:36:12;75.35;;;70.65;;
1140;SDS011;559;48.628;8.924;2022-09-27T03:38:40;75.28;;;70.38;;
1140;SDS011;559;48.628;8.924;2022-09-27T03:41:07;66.10;;;61.40;;
1140;SDS011;559;48.628;8.924;2022-09-27T03:43:33;69.63;;;64.93;;
1140;SDS011;559;48.628;8.924;2022-09-27T03:46:00;70.38;;;65.38;;
1140;SDS011;559;48.628;8.924;2022-09-27T03:48:27;73.68;;;68.88;;
1140;SDS011;559;48.628;8.924;2022-09-27T03:50:55;76.57;;;71.78;;
1140;SDS011;559;48.628;8.924;2022-09-27T03:53:21;71.05;;;66.55;;
1140;SDS011;559;48.628;8.924;2022-09-27T03:55:50;70.35;;;65.65;;
1140;SDS011;559;48.628;8.924;2022-09-27T03:58:16;76.28;;;71.28;;
1140;SDS011;559;48.628;8.924;2022-09-27T04:00:44;72.55;;;68.00;;
1140;SDS011;559;48.628;8.924;2022-09-27T04:03:11;71.35;;;66.65;;
1140;SDS011;559;48.628;8.924;2022-09-27T04:05:38;70.20;;;65.65;;
1140;SDS011;559;48.628;8.924;2022-09-27T04:08:04;73.45;;;68.75;;
1140;SDS011;559;48.628;8.924;2022-09-27T04:10:32;79.28;;;74.25;;
1140;SDS011;559;48.628;8.924;2022-09-27T04:13:00;75.07;;;70.28;;
1140;SDS011;559;48.628;8.924;2022-09-27T04:15:26;75.43;;;70.53;;
1140;SDS011;559;48.628;8.924;2022-09-27T04:17:53;73.57;;;68.68;;
1140;SDS011;559;48.628;8.924;2022-09-27T04:20:19;80.82;;;75.53;;
1140;SDS011;559;48.628;8.924;2022-09-27T04:22:46;78.15;;;73.15;;
1140;SDS011;559;48.628;8.924;2022-09-27T04:25:13;85.85;;;80.55;;
1140;SDS011;559;48.628;8.924;2022-09-27T04:27:42;82.85;;;77.35;;
1140;SDS011;559;48.628;8.924;2022-09-27T04:30:12;87.50;;;82.25;;
1140;SDS011;559;48.628;8.924;2022-09-27T04:32:39;91.88;;;86.07;;
1140;SDS011;559;48.628;8.924;2022-09-27T04:35:07;87.20;;;82.00;;
1140;SDS011;559;48.628;8.924;2022-09-27T04:37:51;87.00;;;81.80;;
1140;SDS011;559;48.628;8.924;2022-09-27T04:40:18;87.07;;;81.78;;
1140;SDS011;559;48.628;8.924;2022-09-27T04:42:46;80.60;;;75.50;;
1140;SDS011;559;48.628;8.924;2022-09-27T04:45:14;85.18;;;79.97;;
1140;SDS011;559;48.628;8.924;2022-09-27T04:47:41;93.07;;;87.78;;
1140;SDS011;559;48.628;8.924;2022-09-27T04:50:08;91.53;;;86.10;;
1140;SDS011;559;48.628;8.924;2022-09-27T04:52:35;87.72;;;82.63;;
1140;SDS011;559;48.628;8.924;2022-09-27T04:55:02;89.65;;;84.53;;
1140;SDS011;559;48.628;8.924;2022-09-27T04:57:29;86.43;;;81.38;;
1140;SDS011;559;48.628;8.924;2022-09-27T04:59:55;89.75;;;84.63;;
1140;SDS011;559;48.628;8.924;2022-09-27T05:02:24;92.10;;;86.80;;
1140;SDS011;559;48.628;8.924;2022-09-27T05:04:51;91.88;;;86.68;;
1140;SDS011;559;48.628;8.924;2022-09-27T05:07:17;94.03;;;88.70;;
1140;SDS011;559;48.628;8.924;2022-09-27T05:09:44;92.40;;;87.25;;
1140;SDS011;559;48.628;8.924;2022-09-27T05:12:11;102.13;;;96.35;;
1140;SDS011;559;48.628;8.924;2022-09-27T05:14:38;93.07;;;87.78;;
1140;SDS011;559;48.628;8.924;2022-09-27T05:17:04;101.40;;;95.90;;
1140;SDS011;559;48.628;8.924;2022-09-27T05:19:33;102.80;;;97.30;;
1140;SDS011;559;48.628;8.924;2022-09-27T05:21:59;96.70;;;91.30;;
1140;SDS011;559;48.628;8.924;2022-09-27T05:24:26;105.20;;;99.55;;
1140;SDS011;559;48.628;8.924;2022-09-27T05:26:53;100.15;;;94.60;;
1140;SDS011;559;48.628;8.924;2022-09-27T05:29:19;104.03;;;98.43;;
1140;SDS011;559;48.628;8.924;2022-09-27T05:31:46;99.75;;;93.93;;
1140;SDS011;559;48.628;8.924;2022-09-27T05:34:13;97.80;;;92.38;;
1140;SDS011;559;48.628;8.924;2022-09-27T05:36:41;92.15;;;86.95;;
1140;SDS011;559;48.628;8.924;2022-09-27T05:39:08;99.53;;;94.03;;
1140;SDS011;559;48.628;8.924;2022-09-27T05:41:34;101.70;;;96.00;;
1140;SDS011;559;48.628;8.924;2022-09-27T05:44:01;107.03;;;101.32;;
1140;SDS011;559;48.628;8.924;2022-09-27T05:46:28;103.10;;;97.38;;
1140;SDS011;559;48.628;8.924;2022-09-27T05:48:54;98.70;;;93.40;;
1140;SDS011;559;48.628;8.924;2022-09-27T05:51:21;106.47;;;101.00;;
1140;SDS011;559;48.628;8.924;2022-09-27T05:53:49;98.10;;;92.90;;
1140;SDS011;559;48.628;8.924;2022-09-27T05:56:15;101.55;;;96.18;;
1140;SDS011;559;48.628;8.924;2022-09-27T05:58:42;96.47;;;91.35;;
1140;SDS011;559;48.628;8.924;2022-09-27T06:01:09;90.82;;;85.85;;
1140;SDS011;559;48.628;8.924;2022-09-27T06:03:36;94.05;;;89.05;;
1140;SDS011;559;48.628;8.924;2022-09-27T06:06:05;89.53;;;84.65;;
1140;SDS011;559;48.628;8.924;2022-09-27T06:08:32;90.35;;;85.45;;
1140;SDS011;559;48.628;8.924;2022-09-27T06:11:01;86.80;;;82.00;;
1140;SDS011;559;48.628;8.924;2022-09-27T06:13:29;86.57;;;81.78;;
1140;SDS011;559;48.628;8.924;2022-09-27T06:15:57;87.15;;;82.45;;
1140;SDS011;559;48.628;8.924;2022-09-27T06:18:24;87.78;;;82.97;;
1140;SDS011;559;48.628;8.924;2022-09-27T06:20:51;83.70;;;79.15;;
1140;SDS011;559;48.628;8.924;2022-09-27T06:23:18;85.78;;;81.07;;
1140;SDS011;559;48.628;8.924;2022-09-27T06:25:45;83.70;;;79.10;;
1140;SDS011;559;48.628;8.924;2022-09-27T06:28:13;87.20;;;82.53;;
1140;SDS011;559;48.628;8.924;2022-09-27T06:30:40;81.53;;;77.10;;
1140;SDS011;559;48.628;8.924;2022-09-27T06:33:08;72.35;;;68.15;;
1140;SDS011;559;48.628;8.924;2022-09-27T06:35:36;78.20;;;73.90;;
1140;SDS011;559;48.628;8.924;2022-09-27T06:38:03;75.28;;;71.05;;
1140;SDS011;559;48.628;8.924;2022-09-27T06:40:31;74.13;;;70.03;;
1140;SDS011;559;48.628;8.924;2022-09-27T06:43:00;74.90;;;70.85;;
1140;SDS011;559;48.628;8.924;2022-09-27T06:45:28;69.53;;;65.72;;
1140;SDS011;559;48.628;8.924;2022-09-27T06:47:55;68.45;;;64.70;;
1140;SDS011;559;48.628;8.924;2022-09-27T06:50:22;73.45;;;69.55;;
1140;SDS011;559;48.628;8.924;2022-09-27T06:52:49;66.60;;;62.85;;
1140;SDS011;559;48.628;8.924;2022-09-27T06:55:16;68.00;;;64.28;;
1140;SDS011;559;48.628;8.924;2022-09-27T06:57:42;68.97;;;65.28;;
1140;SDS011;559;48.628;8.924;2022-09-27T07:00:26;66.38;;;62.70;;
1140;SDS011;559;48.628;8.924;2022-09-27T07:02:55;67.18;;;63.47;;
1140;SDS011;559;48.628;8.924;2022-09-27T07:05:25;62.22;;;58.72;;
1140;SDS011;559;48.628;8.924;2022-09-27T07:07:52;65.50;;;61.83;;
1140;SDS011;559;48.628;8.924;2022-09-27T07:10:22;64.07;;;60.47;;
1140;SDS011;559;48.628;8.924;2022-09-27T07:12:49;61.88;;;58.25;;
1140;SDS011;559;48.628;8.924;2022-09-27T07:15:16;65.00;;;61.40;;
1140;SDS011;559;48.628;8.924;2022-09-27T07:17:43;64.95;;;61.25;;
1140;SDS011;559;48.628;8.924;2022-09-27T07:20:11;65.45;;;61.85;;
1140;SDS011;559;48.628;8.924;2022-09-27T07:22:39;59.28;;;55.70;;
1140;SDS011;559;48.628;8.924;2022-09-27T07:25:07;56.85;;;53.65;;
1140;SDS011;559;48.628;8.924;2022-09-27T07:27:34;56.53;;;53.33;;
1140;SDS011;559;48.628;8.924;2022-09-27T07:30:00;56.20;;;53.15;;
1140;SDS011;559;48.628;8.924;2022-09-27T07:32:27;53.75;;;50.85;;
1140;SDS011;559;48.628;8.924;2022-09-27T07:34:54;57.08;;;54.05;;
1140;SDS011;559;48.628;8.924;2022-09-27T07:37:22;54.85;;;51.95;;
1140;SDS011;559;48.628;8.924;2022-09-27T07:39:48;53.65;;;50.78;;
1140;SDS011;559;48.628;8.924;2022-09-27T07:42:15;54.47;;;51.58;;
1140;SDS011;559;48.628;8.924;2022-09-27T07:44:41;54.60;;;51.70;;
1140;SDS011;559;48.628;8.924;2022-09-27T07:47:08;53.33;;;50.60;;
1140;SDS011;559;48.628;8.924;2022-09-27T07:49:35;53.90;;;51.20;;
1140;SDS011;559;48.628;8.924;2022-09-27T07:52:01;56.95;;;54.05;;
1140;SDS011;559;48.628;8.924;2022-09-27T07:54:29;55.95;;;53.00;;
1140;SDS011;559;48.628;8.924;2022-09-27T07:56:56;56.25;;;53.25;;
1140;SDS011;559;48.628;8.924;2022-09-27T07:59:22;54.05;;;51.25;;
1140;SDS011;559;48.628;8.924;2022-09-27T08:01:49;57.65;;;54.55;;
1140;SDS011;559;48.628;8.924;2022-09-27T08:04:16;55.42;;;52.53;;
1140;SDS011;559;48.628;8.924;2022-09-27T08:06:42;53.90;;;51.10;;
1140;SDS011;559;48.628;8.924;2022-09-27T08:09:09;52.30;;;49.70;;
1140;SDS011;559;48.628;8.924;2022-09-27T08:11:37;55.78;;;52.70;;
1140;SDS011;559;48.628;8.924;2022-09-27T08:14:03;52.95;;;50.30;;
1140;SDS011;559;48.628;8.924;2022-09-27T08:16:31;55.67;;;52.88;;
1140;SDS011;559;48.628;8.924;2022-09-27T08:18:58;54.33;;;51.63;;
1140;SDS011;559;48.628;8.924;2022-09-27T08:21:25;51.55;;;48.85;;
1140;SDS011;559;48.628;8.924;2022-09-27T08:23:51;53.42;;;50.65;;
1140;SDS011;559;48.628;8.924;2022-09-27T08:26:19;50.88;;;48.58;;
1140;SDS011;559;48.628;8.924;2022-09-27T08:28:47;51.78;;;49.47;;
1140;SDS011;559;48.628;8.924;2022-09-27T08:31:14;55.03;;;52.33;;
1140;SDS011;559;48.628;8.924;2022-09-27T08:33:40;56.38;;;53.60;;
1140;SDS011;559;48.628;8.924;2022-09-27T08:36:09;57.70;;;54.72;;
1140;SDS011;559;48.628;8.924;2022-09-27T08:38:36;57.60;;;54.70;;
1140;SDS011;559;48.628;8.924;2022-09-27T08:41:04;56.75;;;53.65;;
1140;SDS011;559;48.628;8.924;2022-09-27T08:43:35;58.60;;;55.50;;
1140;SDS011;559;48.628;8.924;2022-09-27T08:46:14;58.08;;;55.08;;
1140;SDS011;559;48.628;8.924;2022-09-27T08:48:46;57.50;;;54.50;;
1140;SDS011;559;48.628;8.924;2022-09-27T08:51:16;55.85;;;52.55;;
1140;SDS011;559;48.628;8.924;2022-09-27T08:53:45;61.65;;;58.35;;
1140;SDS011;559;48.628;8.924;2022-09-27T08:56:14;66.30;;;62.80;;
1140;SDS011;559;48.628;8.924;2022-09-27T08:58:47;59.67;;;56.45;;
1140;SDS011;559;48.628;8.924;2022-09-27T09:01:17;59.85;;;56.85;;
1140;SDS011;559;48.628;8.924;2022-09-27T09:03:45;58.38;;;55.47;;
1140;SDS011;559;48.628;8.924;2022-09-27T09:06:17;56.58;;;53.67;;
1140;SDS011;559;48.628;8.924;2022-09-27T09:08:50;56.60;;;53.80;;
1140;SDS011;559;48.628;8.924;2022-09-27T09:11:26;57.92;;;54.92;;
1140;SDS011;559;48.628;8.924;2022-09-27T09:14:22;60.00;;;57.00;;
1140;SDS011;559;48.628;8.924;2022-09-27T09:16:59;55.85;;;53.17;;
1140;SDS011;559;48.628;8.924;2022-09-27T09:19:42;55.78;;;53.10;;
1140;SDS011;559;48.628;8.924;2022-09-27T09:22:19;52.65;;;50.15;;
1140;SDS011;559;48.628;8.924;2022-09-27T09:24:59;51.65;;;49.35;;
1140;SDS011;559;48.628;8.924;2022-09-27T09:27:33;52.22;;;49.85;;
1140;SDS011;559;48.628;8.924;2022-09-27T09:30:03;50.15;;;47.95;;
1140;SDS011;559;48.628;8.924;2022-09-27T09:32:56;48.80;;;46.80;;
1140;SDS011;559;48.628;8.924;2022-09-27T09:35:32;50.05;;;47.75;;
1140;SDS011;559;48.628;8.924;2022-09-27T09:38:02;45.47;;;43.67;;
1140;SDS011;559;48.628;8.924;2022-09-27T09:40:30;45.88;;;44.08;;
1140;SDS011;559;48.628;8.924;2022-09-27T09:43:01;46.50;;;44.70;;
1140;SDS011;559;48.628;8.924;2022-09-27T09:45:30;50.38;;;48.28;;
1140;SDS011;559;48.628;8.924;2022-09-27T09:48:01;46.15;;;44.40;;
1140;SDS011;559;48.628;8.924;2022-09-27T09:50:29;44.10;;;42.50;;
1140;SDS011;559;48.628;8.924;2022-09-27T09:53:02;44.28;;;42.65;;
1140;SDS011;559;48.628;8.924;2022-09-27T09:55:32;43.22;;;41.63;;
1140;SDS011;559;48.628;8.924;2022-09-27T09:58:01;45.70;;;44.00;;
1140;SDS011;559;48.628;8.924;2022-09-27T10:00:32;43.95;;;42.35;;
1140;SDS011;559;48.628;8.924;2022-09-27T10:02:58;43.05;;;41.45;;
1140;SDS011;559;48.628;8.924;2022-09-27T10:05:28;41.25;;;39.75;;
1140;SDS011;559;48.628;8.924;2022-09-27T10:07:56;41.47;;;40.08;;
1140;SDS011;559;48.628;8.924;2022-09-27T10:10:24;43.40;;;41.70;;
1140;SDS011;559;48.628;8.924;2022-09-27T10:12:50;42.95;;;41.35;;
1140;SDS011;559;48.628;8.924;2022-09-27T10:15:17;40.20;;;38.65;;
1140;SDS011;559;48.628;8.924;2022-09-27T10:17:47;40.75;;;39.15;;
1140;SDS011;559;48.628;8.924;2022-09-27T10:20:21;40.92;;;39.42;;
1140;SDS011;559;48.628;8.924;2022-09-27T10:22:52;43.28;;;41.67;;
1140;SDS011;559;48.628;8.924;2022-09-27T10:25:20;43.05;;;41.35;;
1140;SDS011;559;48.628;8.924;2022-09-27T10:27:47;43.85;;;42.05;;
1140;SDS011;559;48.628;8.924;2022-09-27T10:30:22;42.30;;;40.67;;
1140;SDS011;559;48.628;8.924;2022-09-27T10:32:51;43.80;;;41.85;;
1140;SDS011;559;48.628;8.924;2022-09-27T10:35:31;44.08;;;42.55;;
1140;SDS011;559;48.628;8.924;2022-09-27T10:38:11;41.80;;;40.30;;
1140;SDS011;559;48.628;8.924;2022-09-27T10:40:45;41.55;;;40.05;;
1140;SDS011;559;48.628;8.924;2022-09-27T10:43:21;41.65;;;40.15;;
1140;SDS011;559;48.628;8.924;2022-09-27T10:45:52;39.53;;;37.55;;
1140;SDS011;559;48.628;8.924;2022-09-27T10:48:25;35.35;;;34.35;;
1140;SDS011;559;48.628;8.924;2022-09-27T10:50:56;38.15;;;36.85;;
1140;SDS011;559;48.628;8.924;2022-09-27T10:53:24;35.42;;;34.22;;
1140;SDS011;559;48.628;8.924;2022-09-27T10:55:52;35.42;;;34.30;;
1140;SDS011;559;48.628;8.924;2022-09-27T10:58:19;30.77;;;29.77;;
1140;SDS011;559;48.628;8.924;2022-09-27T11:00:53;27.52;;;26.73;;
1140;SDS011;559;48.628;8.924;2022-09-27T11:03:21;29.17;;;28.17;;
1140;SDS011;559;48.628;8.924;2022-09-27T11:05:50;30.38;;;29.48;;
1140;SDS011;559;48.628;8.924;2022-09-27T11:08:26;30.08;;;29.17;;
1140;SDS011;559;48.628;8.924;2022-09-27T11:11:03;31.58;;;30.23;;
1140;SDS011;559;48.628;8.924;2022-09-27T11:13:33;32.60;;;31.70;;
1140;SDS011;559;48.628;8.924;2022-09-27T11:16:10;33.38;;;32.38;;
1140;SDS011;559;48.628;8.924;2022-09-27T11:18:46;34.88;;;33.58;;
1140;SDS011;559;48.628;8.924;2022-09-27T11:21:19;39.35;;;38.05;;
1140;SDS011;559;48.628;8.924;2022-09-27T11:24:01;42.95;;;41.45;;
1140;SDS011;559;48.628;8.924;2022-09-27T11:26:40;44.53;;;42.85;;
1140;SDS011;559;48.628;8.924;2022-09-27T11:29:16;45.40;;;43.88;;
1140;SDS011;559;48.628;8.924;2022-09-27T11:31:51;48.20;;;46.40;;
1140;SDS011;559;48.628;8.924;2022-09-27T11:34:37;50.42;;;48.53;;
1140;SDS011;559;48.628;8.924;2022-09-27T11:37:14;50.92;;;48.92;;
1140;SDS011;559;48.628;8.924;2022-09-27T11:39:53;52.20;;;50.10;;
1140;SDS011;559;48.628;8.924;2022-09-27T11:42:39;52.10;;;50.00;;
1140;SDS011;559;48.628;8.924;2022-09-27T11:45:30;51.58;;;49.58;;
1140;SDS011;559;48.628;8.924;2022-09-27T11:48:07;52.58;;;50.45;;
1140;SDS011;559;48.628;8.924;2022-09-27T11:50:46;52.97;;;50.67;;
1140;SDS011;559;48.628;8.924;2022-09-27T11:53:23;53.45;;;51.15;;
1140;SDS011;559;48.628;8.924;2022-09-27T11:56:00;56.13;;;53.97;;
1140;SDS011;559;48.628;8.924;2022-09-27T11:58:33;52.80;;;50.50;;
1140;SDS011;559;48.628;8.924;2022-09-27T12:01:17;57.35;;;55.00;;
1140;SDS011;559;48.628;8.924;2022-09-27T12:03:54;59.05;;;56.33;;
1140;SDS011;559;48.628;8.924;2022-09-27T12:06:32;61.42;;;58.42;;
1140;SDS011;559;48.628;8.924;2022-09-27T12:09:05;62.97;;;59.83;;
1140;SDS011;559;48.628;8.924;2022-09-27T12:11:36;66.13;;;62.70;;
1140;SDS011;559;48.628;8.924;2022-09-27T12:14:05;66.82;;;63.40;;
1140;SDS011;559;48.628;8.924;2022-09-27T12:16:35;65.68;;;62.28;;
1140;SDS011;559;48.628;8.924;2022-09-27T12:19:02;61.15;;;58.15;;
1140;SDS011;559;48.628;8.924;2022-09-27T12:21:29;63.03;;;59.92;;
1140;SDS011;559;48.628;8.924;2022-09-27T12:23:57;63.20;;;60.20;;
1140;SDS011;559;48.628;8.924;2022-09-27T12:26:24;63.70;;;60.60;;
1140;SDS011;559;48.628;8.924;2022-09-27T12:28:56;63.47;;;60.38;;
1140;SDS011;559;48.628;8.924;2022-09-27T12:31:25;68.97;;;65.53;;
1140;SDS011;559;48.628;8.924;2022-09-27T12:34:01;65.95;;;62.75;;
1140;SDS011;559;48.628;8.924;2022-09-27T12:36:35;61.92;;;58.92;;
1140;SDS011;559;48.628;8.924;2022-09-27T12:39:09;63.33;;;60.22;;
1140;SDS011;559;48.628;8.924;2022-09-27T12:41:38;65.40;;;62.28;;
1140;SDS011;559;48.628;8.924;2022-09-27T12:44:09;61.95;;;58.85;;
1140;SDS011;559;48.628;8.924;2022-09-27T12:46:40;68.57;;;64.97;;
1140;SDS011;559;48.628;8.924;2022-09-27T12:49:11;62.67;;;59.58;;
1140;SDS011;559;48.628;8.924;2022-09-27T12:51:42;61.17;;;57.97;;
1140;SDS011;559;48.628;8.924;2022-09-27T12:57:07;58.55;;;55.28;;
1140;SDS011;559;48.628;8.924;2022-09-27T12:59:45;59.22;;;56.13;;
1140;SDS011;559;48.628;8.924;2022-09-27T13:02:23;57.20;;;54.00;;
1140;SDS011;559;48.628;8.924;2022-09-27T13:05:03;59.08;;;55.83;;
1140;SDS011;559;48.628;8.924;2022-09-27T13:07:41;58.05;;;54.53;;
1140;SDS011;559;48.628;8.924;2022-09-27T13:10:30;54.60;;;51.70;;
1140;SDS011;559;48.628;8.924;2022-09-27T13:13:00;56.50;;;53.60;;
1140;SDS011;559;48.628;8.924;2022-09-27T13:15:30;54.92;;;52.03;;
1140;SDS011;559;48.628;8.924;2022-09-27T13:17:58;53.13;;;50.22;;
1140;SDS011;559;48.628;8.924;2022-09-27T13:20:36;55.70;;;52.70;;
1140;SDS011;559;48.628;8.924;2022-09-27T13:26:23;50.80;;;48.20;;
1140;SDS011;559;48.628;8.924;2022-09-27T13:29:10;50.92;;;48.35;;
1140;SDS011;559;48.628;8.924;2022-09-27T13:34:49;48.60;;;46.30;;
1140;SDS011;559;48.628;8.924;2022-09-27T13:45:57;39.60;;;38.30;;
1140;SDS011;559;48.628;8.924;2022-09-27T13:48:27;36.75;;;35.65;;
1140;SDS011;559;48.628;8.924;2022-09-27T13:50:58;34.35;;;33.25;;
1140;SDS011;559;48.628;8.924;2022-09-27T13:53:28;33.03;;;32.08;;
1140;SDS011;559;48.628;8.924;2022-09-27T13:55:56;30.63;;;29.80;;
1140;SDS011;559;48.628;8.924;2022-09-27T13:58:29;26.63;;;25.92;;
1140;SDS011;559;48.628;8.924;2022-09-27T14:01:15;30.25;;;29.45;;
1140;SDS011;559;48.628;8.924;2022-09-27T14:03:51;30.67;;;29.88;;
1140;SDS011;559;48.628;8.924;2022-09-27T14:06:20;28.77;;;27.67;;
1140;SDS011;559;48.628;8.924;2022-09-27T14:08:49;28.67;;;27.98;;
1140;SDS011;559;48.628;8.924;2022-09-27T14:11:18;32.65;;;31.73;;
1140;SDS011;559;48.628;8.924;2022-09-27T14:13:47;32.10;;;31.23;;
1140;SDS011;559;48.628;8.924;2022-09-27T14:16:14;34.03;;;33.03;;
1140;SDS011;559;48.628;8.924;2022-09-27T14:18:42;33.92;;;32.97;;
1140;SDS011;559;48.628;8.924;2022-09-27T14:21:16;36.35;;;35.25;;
1140;SDS011;559;48.628;8.924;2022-09-27T14:23:51;33.67;;;32.67;;
1140;SDS011;559;48.628;8.924;2022-09-27T14:26:20;32.03;;;31.13;;
1140;SDS011;559;48.628;8.924;2022-09-27T14:28:48;31.40;;;30.60;;
1140;SDS011;559;48.628;8.924;2022-09-27T14:31:15;31.80;;;30.70;;
1140;SDS011;559;48.628;8.924;2022-09-27T14:33:43;30.88;;;29.88;;
1140;SDS011;559;48.628;8.924;2022-09-27T14:36:14;30.20;;;29.40;;
1140;SDS011;559;48.628;8.924;2022-09-27T14:39:11;30.15;;;29.35;;
1140;SDS011;559;48.628;8.924;2022-09-27T14:41:39;31.80;;;30.95;;
1140;SDS011;559;48.628;8.924;2022-09-27T14:44:10;31.90;;;31.02;;
1140;SDS011;559;48.628;8.924;2022-09-27T14:46:39;32.88;;;31.98;;
1140;SDS011;559;48.628;8.924;2022-09-27T14:49:10;33.67;;;32.78;;
1140;SDS011;559;48.628;8.924;2022-09-27T14:51:39;33.45;;;32.55;;
1140;SDS011;559;48.628;8.924;2022-09-27T14:54:17;34.92;;;33.92;;
1140;SDS011;559;48.628;8.924;2022-09-27T14:56:45;35.20;;;34.20;;
1140;SDS011;559;48.628;8.924;2022-09-27T14:59:12;37.75;;;36.55;;
1140;SDS011;559;48.628;8.924;2022-09-27T15:01:46;37.10;;;36.00;;
1140;SDS011;559;48.628;8.924;2022-09-27T15:04:14;31.48;;;30.58;;
1140;SDS011;559;48.628;8.924;2022-09-27T15:06:42;27.63;;;26.92;;
1140;SDS011;559;48.628;8.924;2022-09-27T15:09:09;24.85;;;24.15;;
1140;SDS011;559;48.628;8.924;2022-09-27T15:11:38;18.77;;;18.27;;
1140;SDS011;559;48.628;8.924;2022-09-27T15:14:05;19.13;;;18.63;;
1140;SDS011;559;48.628;8.924;2022-09-27T15:16:32;15.95;;;15.55;;
1140;SDS011;559;48.628;8.924;2022-09-27T15:19:00;16.42;;;16.02;;
1140;SDS011;559;48.628;8.924;2022-09-27T15:21:29;18.90;;;18.30;;
1140;SDS011;559;48.628;8.924;2022-09-27T15:23:58;17.77;;;17.35;;
1140;SDS011;559;48.628;8.924;2022-09-27T15:26:26;16.33;;;15.93;;
1140;SDS011;559;48.628;8.924;2022-09-27T15:29:00;18.05;;;17.55;;
1140;SDS011;559;48.628;8.924;2022-09-27T15:31:29;17.50;;;17.10;;
1140;SDS011;559;48.628;8.924;2022-09-27T15:33:57;18.08;;;17.58;;
1140;SDS011;559;48.628;8.924;2022-09-27T15:39:20;18.45;;;17.90;;
1140;SDS011;559;48.628;8.924;2022-09-27T15:41:59;18.15;;;17.55;;
1140;SDS011;559;48.628;8.924;2022-09-27T15:44:37;18.80;;;18.30;;
1140;SDS011;559;48.628;8.924;2022-09-27T15:50:34;23.92;;;23.33;;